D/T METAR WX W/SPE G/SPE TEMP DEWP FEEL
31/01/23 13:20 EGQS 311320Z 25020KT 9999 FEW010 FEW015CB SCT080 03/02 Q1007 TEMPO 5000 SHRA SHGS SCT010 BKN015CB RMK BLU TEMPO GRN 23.0mph 3°C 2°C 1.4°C
31/01/23 13:12 EGQS 311312Z 26025G40KT 9999 VCSH FEW012 FEW015CB SCT080 03/01 Q1007 TEMPO 5000 SHRA SHGS SCT010 BKN015CB RMK BLU TEMPO GRN VCSH 28.8mph 46.0mph 3°C 1°C 1.1°C
31/01/23 12:20 EGQS 311220Z 25023KT 9999 FEW010 FEW014CB BKN250 04/01 Q1007 TEMPO 4000 SHRA SCT010 BKN015CB RMK BLU TEMPO GRN 26.5mph 4°C 1°C 2.1°C
31/01/23 05:50 EGQS 310550Z 26022KT CAVOK 05/02 Q1005 RMK BLU 25.3mph 5°C 2°C 3.4°C
30/01/23 21:50 EGQS 302150Z 22014KT 9999 FEW037 BKN070 07/04 Q1009 NOSIG RMK BLU BLU 16.1mph 7°C 4°C 6.0°C
30/01/23 12:50 EGQS 301250Z 27010KT 9999 FEW028 07/03 Q1018 NOSIG RMK BLU BLU 11.5mph 7°C 3°C 5.7°C
30/01/23 11:50 EGQS 301150Z 29013KT 9999 FEW028 SCT035 06/02 Q1018 NOSIG RMK BLU BLU 15.0mph 6°C 2°C 4.4°C
30/01/23 10:50 EGQS 301050Z 27011KT 9999 FEW028 06/02 Q1018 NOSIG RMK BLU BLU 12.7mph 6°C 2°C 4.4°C
30/01/23 10:20 EGQS 301020Z 28012KT 9999 FEW025 06/02 Q1017 NOSIG RMK BLU BLU 13.8mph 6°C 2°C 4.4°C
30/01/23 09:50 EGQS 300950Z 28014KT 9999 FEW040 05/02 Q1017 NOSIG RMK BLU BLU 16.1mph 5°C 2°C 3.4°C
30/01/23 07:50 EGQS 300750Z 27014KT 9999 FEW030 05/02 Q1015 NOSIG RMK BLU BLU 16.1mph 5°C 2°C 3.4°C
30/01/23 06:50 EGQS 300650Z 29017KT 9999 SCT031 06/02 Q1014 RMK BLU 19.6mph 6°C 2°C 4.4°C
09/01/23 05:50 EGQS 090550Z 23007KT CAVOK 03/01 Q0982 RMK BLU 8.1mph 3°C 1°C 1.1°C
09/01/23 04:50 EGQS 090450Z 23006KT CAVOK 02/00 Q0981 RMK BLU 6.9mph 2°C 0°C -0.2°C
09/01/23 03:50 EGQS 090350Z 22008KT CAVOK 03/01 Q0980 RMK BLU 9.2mph 3°C 1°C 1.1°C
09/01/23 02:50 EGQS 090250Z 24010KT 9999 FEW040 BKN180 04/01 Q0980 RMK BLU 11.5mph 4°C 1°C 2.1°C
09/01/23 00:50 EGQS 090050Z 22007KT 9999 FEW046 BKN210 01/M01 Q0979 RMK BLU 8.1mph 1°C -1°C -1.4°C
08/01/23 23:50 EGQS 082350Z 23007KT CAVOK 02/00 Q0978 RMK BLU 8.1mph 2°C 0°C -0.2°C
08/01/23 22:50 EGQS 082250Z 16001KT CAVOK 04/01 Q0977 RMK BLU 1.2mph 4°C 1°C 2.1°C
08/01/23 21:50 EGQS 082150Z 22011KT CAVOK 05/01 Q0977 RMK BLU 12.7mph 5°C 1°C 3.1°C
08/01/23 18:50 EGQS 081850Z 16007KT CAVOK 05/M01 Q0976 RMK BLU 8.1mph 5°C -1°C 2.6°C
08/01/23 17:50 EGQS 081750Z 18010KT CAVOK 06/M01 Q0976 RMK BLU 11.5mph 6°C -1°C 3.6°C
08/01/23 16:50 EGQS 081650Z 18010KT 9999 FEW030 BKN120 BKN250 05/M01 Q0976 RMK BLU 11.5mph 5°C -1°C 2.6°C
08/01/23 15:50 EGQS 081550Z 18014KT 9999 FEW030 SCT180 BKN200 06/M01 Q0975 RMK BLU 16.1mph 6°C -1°C 3.6°C
08/01/23 13:50 EGQS 081350Z 19018KT 9999 FEW030 SCT160 BKN250 07/M01 Q0975 RMK BLU 20.7mph 7°C -1°C 4.6°C
08/01/23 12:50 EGQS 081250Z 19015G25KT 9999 FEW030 BKN250 07/M01 Q0975 RMK BLU 17.3mph 28.8mph 7°C -1°C 4.6°C
08/01/23 11:50 EGQS 081150Z 19018KT 9999 FEW030 BKN250 07/M00 Q0975 RMK BLU 20.7mph 7°C 0°C 4.8°C
08/01/23 10:50 EGQS 081050Z 18017KT 9999 FEW030 BKN250 07/00 Q0975 RMK BLU 19.6mph 7°C 0°C 4.8°C
08/01/23 09:50 EGQS 080950Z 18020KT 9999 FEW030 SCT160 BKN250 06/01 Q0975 RMK BLU 23.0mph 6°C 1°C 4.1°C
08/01/23 08:50 EGQS 080850Z 18016KT 9999 FEW030 BKN230 06/00 Q0975 RMK BLU 18.4mph 6°C 0°C 3.8°C
08/01/23 07:50 EGQS 080750Z 19016KT 9999 FEW025 06/M00 Q0975 RMK BLU 18.4mph 6°C 0°C 3.8°C
08/01/23 06:50 EGQS 080650Z 20019G29KT CAVOK 06/M00 Q0975 RMK BLU 21.9mph 33.4mph 6°C 0°C 3.8°C
08/01/23 06:20 EGQS 080620Z AUTO 21020G30KT 9999 NCD 06/01 Q0975 23.0mph 34.5mph 6°C 1°C 4.1°C
08/01/23 05:50 EGQS 080550Z 22015KT CAVOK 06/01 Q0976 RMK BLU 17.3mph 6°C 1°C 4.1°C
08/01/23 05:20 EGQS 080520Z AUTO 22017KT 9999 NCD 06/02 Q0975 19.6mph 6°C 2°C 4.4°C
08/01/23 04:50 EGQS 080450Z 21018KT CAVOK 07/02 Q0975 RMK BLU 20.7mph 7°C 2°C 5.4°C
08/01/23 03:50 EGQS 080350Z 21015KT CAVOK 06/02 Q0975 RMK BLU 17.3mph 6°C 2°C 4.4°C
08/01/23 02:50 EGQS 080250Z 19010G23KT 9999 SCT045 07/02 Q0975 RMK BLU 11.5mph 26.5mph 7°C 2°C 5.4°C
08/01/23 01:50 EGQS 080150Z 17013KT 9999 FEW040 BKN200 07/02 Q0974 RMK BLU 15.0mph 7°C 2°C 5.4°C
07/01/23 23:50 EGQS 072350Z 16017KT CAVOK 07/02 Q0975 RMK BLU 19.6mph 7°C 2°C 5.4°C
07/01/23 22:50 EGQS 072250Z 18006KT 9999 FEW045 06/01 Q0976 RMK BLU 6.9mph 6°C 1°C 4.1°C
07/01/23 22:20 EGQS 072220Z AUTO 16012KT 9999 FEW038/// 07/02 Q0976 13.8mph 7°C 2°C 5.4°C
07/01/23 21:50 EGQS 072150Z 14017KT CAVOK 07/02 Q0976 RMK BLU 19.6mph 7°C 2°C 5.4°C
07/01/23 21:20 EGQS 072120Z AUTO 16016KT 9999 BKN230/// 07/02 Q0976 18.4mph 7°C 2°C 5.4°C
07/01/23 20:50 EGQS 072050Z 17015KT CAVOK 07/02 Q0977 RMK BLU 17.3mph 7°C 2°C 5.4°C
07/01/23 20:20 EGQS 072020Z AUTO 13007KT 9999 BKN210/// 06/01 Q0978 8.1mph 6°C 1°C 4.1°C
07/01/23 19:50 EGQS 071950Z 16011KT CAVOK 06/01 Q0978 RMK BLU 12.7mph 6°C 1°C 4.1°C
07/01/23 19:20 EGQS 071920Z AUTO 15008KT 9999 SCT180/// 05/01 Q0978 9.2mph 5°C 1°C 3.1°C
07/01/23 18:50 EGQS 071850Z 15006KT CAVOK 05/01 Q0978 RMK BLU 6.9mph 5°C 1°C 3.1°C
07/01/23 18:20 EGQS 071820Z AUTO 13007KT 9999 NCD 06/02 Q0979 8.1mph 6°C 2°C 4.4°C
07/01/23 17:50 EGQS 071750Z 16007KT 9999 FEW047 05/01 Q0979 RMK BLU 8.1mph 5°C 1°C 3.1°C
07/01/23 17:20 EGQS 071720Z 17006KT 9999 FEW036 06/01 Q0980 NOSIG RMK BLU BLU 6.9mph 6°C 1°C 4.1°C
07/01/23 16:50 EGQS 071650Z AUTO 17005KT 9999 BKN120/// 05/02 Q0980 5.8mph 5°C 2°C 3.4°C
07/01/23 16:20 EGQS 071620Z 18011KT 9999 FEW018 07/02 Q0980 NOSIG RMK BLU 12.7mph 7°C 2°C 5.4°C
07/01/23 15:50 EGQS 071550Z 15004KT 9999 FEW018 07/03 Q0980 NOSIG RMK BLU BLU 4.6mph 7°C 3°C 5.7°C
07/01/23 15:20 EGQS 071520Z 15007KT 9999 FEW023 SCT038 07/04 Q0981 NOSIG RMK BLU BLU 8.1mph 7°C 4°C 6.0°C
07/01/23 14:50 EGQS 071450Z 13006KT 9999 FEW023 SCT042 07/04 Q0981 NOSIG RMK BLU BLU 6.9mph 7°C 4°C 6.0°C
07/01/23 14:20 EGQS 071420Z 12004KT 9999 FEW027 08/04 Q0981 NOSIG RMK BLU BLU 4.6mph 8°C 4°C 7.0°C
07/01/23 13:50 EGQS 071350Z 13007KT 9999 FEW027 SCT096 09/05 Q0982 NOSIG RMK BLU BLU 8.1mph 9°C 5°C 8.3°C
07/01/23 12:50 EGQS 071250Z 21001KT 9999 FEW020 BKN086 07/05 Q0983 NOSIG RMK BLU BLU 1.2mph 7°C 5°C 6.3°C
07/01/23 12:20 EGQS 071220Z 16002KT 9999 FEW018 BKN095 ////// 07/04 Q0983 NOSIG RMK BLU BLU 2.3mph 7°C 4°C 6.0°C
07/01/23 11:50 EGQS 071150Z 33003KT 9999 FEW018 SCT060 BKN079 06/05 Q0984 NOSIG RMK BLU BLU 3.5mph 6°C 5°C 5.3°C
07/01/23 11:20 EGQS 071120Z 19002KT 9999 FEW018 BKN063 BKN140 07/05 Q0984 NOSIG RMK BLU BLU 2.3mph 7°C 5°C 6.3°C
07/01/23 10:50 EGQS 071050Z 22001KT 9999 FEW018 BKN063 BKN140 07/04 Q0985 NOSIG RMK BLU BLU 1.2mph 7°C 4°C 6.0°C
07/01/23 10:20 EGQS 071020Z 18004KT 9999 FEW018 BKN064 BKN140 07/04 Q0985 NOSIG RMK BLU BLU 4.6mph 7°C 4°C 6.0°C
07/01/23 09:50 EGQS 070950Z 20004KT 9999 FEW017 BKN060 BKN140 07/04 Q0985 RMK BLU 4.6mph 7°C 4°C 6.0°C
07/01/23 08:50 EGQS 070850Z 21003KT 9999 FEW018 BKN072 BKN140 07/05 Q0986 RMK BLU 3.5mph 7°C 5°C 6.3°C
07/01/23 07:50 EGQS 070750Z 14007KT CAVOK 07/05 Q0985 RMK BLU 8.1mph 7°C 5°C 6.3°C
07/01/23 06:50 EGQS 070650Z 17005KT 9999 FEW030 BKN120 06/05 Q0987 RMK BLU 5.8mph 6°C 5°C 5.3°C
07/01/23 05:50 EGQS 070550Z 16003KT 9999 -RA BKN060 07/05 Q0987 RMK BLU -RA 3.5mph 7°C 5°C 6.3°C
07/01/23 04:50 EGQS 070450Z 15009KT CAVOK 08/05 Q0988 RMK BLU 10.4mph 8°C 5°C 7.3°C
07/01/23 03:50 EGQS 070350Z 10004KT 9999 FEW028 BKN060 08/05 Q0989 RMK BLU 4.6mph 8°C 5°C 7.3°C
07/01/23 02:50 EGQS 070250Z 14010KT 9999 -RA FEW028 BKN060 08/05 Q0990 RMK BLU -RA 11.5mph 8°C 5°C 7.3°C
07/01/23 01:50 EGQS 070150Z 10007KT 9999 -RA FEW028 BKN080 06/04 Q0992 RMK BLU -RA 8.1mph 6°C 4°C 5.0°C
07/01/23 00:50 EGQS 070050Z 12008KT 9999 FEW028 BKN080 06/04 Q0993 RMK BLU 9.2mph 6°C 4°C 5.0°C
06/01/23 23:50 EGQS 062350Z 12012KT 9999 -RA SCT032 BKN060 07/04 Q0994 RMK BLU -RA 13.8mph 7°C 4°C 6.0°C
06/01/23 22:50 EGQS 062250Z 12005KT 9999 -RA SCT060 BKN080 07/03 Q0996 RMK BLU -RA 5.8mph 7°C 3°C 5.7°C
06/01/23 21:50 EGQS 062150Z 12004KT CAVOK 06/02 Q0997 RMK BLU 4.6mph 6°C 2°C 4.4°C
06/01/23 20:50 EGQS 062050Z 12008KT CAVOK 06/01 Q0998 RMK BLU 9.2mph 6°C 1°C 4.1°C
06/01/23 19:50 EGQS 061950Z 11005KT 9999 FEW040 BKN140 05/02 Q0998 RMK BLU 5.8mph 5°C 2°C 3.4°C
06/01/23 18:20 EGQS 061820Z AUTO 21008KT 9999 FEW180/// 06/03 Q0999 9.2mph 6°C 3°C 4.7°C
06/01/23 17:20 EGQS 061720Z AUTO 23011KT 9999 SCT038/// 06/02 Q0999 12.7mph 6°C 2°C 4.4°C
06/01/23 16:50 EGQS 061650Z 21007KT 9999 BKN040 06/03 Q0999 RMK BLU 8.1mph 6°C 3°C 4.7°C
06/01/23 16:20 EGQS 061620Z 22011KT 9999 FEW025 BKN045 07/03 Q0999 NOSIG RMK BLU BLU 12.7mph 7°C 3°C 5.7°C
06/01/23 15:20 EGQS 061520Z 22014KT 9999 FEW025 SCT250 07/03 Q0998 NOSIG RMK BLU BLU 16.1mph 7°C 3°C 5.7°C
06/01/23 14:20 EGQS 061420Z 26022KT 9999 FEW025 08/03 Q0997 NOSIG RMK BLU BLU 25.3mph 8°C 3°C 6.7°C
06/01/23 13:50 EGQS 061350Z 26024KT 9999 FEW025 08/03 Q0996 NOSIG RMK BLU BLU 27.6mph 8°C 3°C 6.7°C
06/01/23 13:20 EGQS 061320Z 26016KT 9999 FEW023 08/03 Q0997 NOSIG RMK BLU BLU 18.4mph 8°C 3°C 6.7°C
06/01/23 12:50 EGQS 061250Z 26019G29KT 9999 FEW023 08/02 Q0996 NOSIG RMK BLU BLU 21.9mph 33.4mph 8°C 2°C 6.4°C
06/01/23 12:20 EGQS 061220Z 26022KT 9999 FEW023 08/02 Q0995 NOSIG RMK BLU BLU 25.3mph 8°C 2°C 6.4°C
06/01/23 11:20 EGQS 061120Z 25027KT 9999 FEW027 08/02 Q0995 NOSIG RMK BLU BLU 31.1mph 8°C 2°C 6.4°C
06/01/23 10:50 EGQS 061050Z 25030G41KT 9999 FEW024 08/03 Q0994 NOSIG RMK BLU BLU 34.5mph 47.2mph 8°C 3°C 6.7°C
06/01/23 10:20 EGQS 061020Z 26029G40KT 9999 FEW024 08/02 Q0993 RMK BLU 33.4mph 46.0mph 8°C 2°C 6.4°C
06/01/23 09:50 EGQS 060950Z 26034G47KT 9999 FEW024 08/02 Q0992 NOSIG RMK BLU BLU 39.1mph 54.1mph 8°C 2°C 6.4°C
06/01/23 09:20 EGQS 060920Z 25031G42KT 9999 FEW024 08/03 Q0991 NOSIG RMK BLU BLU 35.7mph 48.3mph 8°C 3°C 6.7°C
06/01/23 08:50 EGQS 060850Z 26031G42KT 9999 FEW024 08/03 Q0990 RMK BLU 35.7mph 48.3mph 8°C 3°C 6.7°C